Aviation Digital Data Service (ADDS)

Output produced by METARs form (0031 UTC 21 October 2014)
found at http://aviationweather.gov/adds/metars/
 
KMHT 202326Z 2100/2124 17004KT P6SM OVC100 
     FM211400 03004KT P6SM OVC030 
     FM211600 04005KT 3SM -SHRA BR OVC020 
     FM212300 04005KT P6SM OVC015